Time;durP1;ratioP1;P1;durP2;ratioP2;P2;SDS_P1;SDS_P2;PMS_P1;PMS_P2;Temp;Humidity;BMP_temperature;BMP_pressure;BME280_temperature;BME280_humidity;BME280_pressure;Samples;Min_cycle;Max_cycle;Signal;HPM_P1;HPM_P2
2021/04/18 00:01:48;;;;;;;13.10;8.98;;;;;;;;;;5115153;28;20024;-66
2021/04/18 00:04:14;;;;;;;13.43;9.48;;;;;;;;;;5108217;28;20109;-66
2021/04/18 00:06:41;;;;;;;13.30;8.40;;;;;;;;;;5084477;28;20499;-65
2021/04/18 00:09:07;;;;;;;13.27;9.30;;;;;;;;;;5107828;28;20535;-66
2021/04/18 00:11:34;;;;;;;13.00;8.75;;;;;;;;;;5101134;28;20024;-65
2021/04/18 00:14:00;;;;;;;12.63;8.50;;;;;;;;;;5107257;28;20043;-66
2021/04/18 00:16:26;;;;;;;14.18;8.88;;;;;;;;;;5095317;28;20042;-66
2021/04/18 00:18:52;;;;;;;14.70;8.18;;;;;;;;;;5104322;28;20016;-66
2021/04/18 00:21:18;;;;;;;12.45;8.50;;;;;;;;;;5096345;28;20024;-65
2021/04/18 00:23:45;;;;;;;16.58;9.85;;;;;;;;;;5110205;28;20068;-65
2021/04/18 00:26:11;;;;;;;15.35;8.50;;;;;;;;;;5113911;28;20035;-66
2021/04/18 00:28:37;;;;;;;16.13;8.95;;;;;;;;;;5104646;28;20030;-67
2021/04/18 00:31:03;;;;;;;14.15;9.10;;;;;;;;;;5095767;28;20027;-65
2021/04/18 00:33:29;;;;;;;14.13;9.48;;;;;;;;;;5099905;28;20071;-64
2021/04/18 00:35:55;;;;;;;14.48;9.07;;;;;;;;;;5105573;28;20027;-65
2021/04/18 00:38:21;;;;;;;13.00;8.25;;;;;;;;;;5105682;28;20495;-65
2021/04/18 00:40:47;;;;;;;12.77;8.98;;;;;;;;;;5106538;28;20023;-65
2021/04/18 00:43:14;;;;;;;15.13;9.40;;;;;;;;;;5111422;28;20055;-64
2021/04/18 00:45:40;;;;;;;14.73;8.77;;;;;;;;;;5102575;28;20058;-65
2021/04/18 00:48:06;;;;;;;13.20;8.18;;;;;;;;;;5098436;28;20383;-65
2021/04/18 00:50:33;;;;;;;9.75;8.23;;;;;;;;;;5111950;28;20135;-65
2021/04/18 00:53:04;;;;;;;10.35;8.05;;;;;;;;;;5102260;28;20020;-65
2021/04/18 00:55:31;;;;;;;15.93;8.02;;;;;;;;;;5112261;28;20031;-65
2021/04/18 00:57:57;;;;;;;15.00;8.02;;;;;;;;;;5110927;28;20039;-65
2021/04/18 01:00:23;;;;;;;12.30;8.15;;;;;;;;;;5110694;28;20035;-65
2021/04/18 01:02:50;;;;;;;12.65;9.00;;;;;;;;;;5097349;28;20106;-66
2021/04/18 01:05:16;;;;;;;15.18;8.93;;;;;;;;;;5097083;28;20139;-65
2021/04/18 01:07:42;;;;;;;12.90;7.90;;;;;;;;;;5096228;28;20032;-65
2021/04/18 01:10:10;;;;;;;12.60;9.23;;;;;;;;;;5099780;28;20051;-64
2021/04/18 01:12:36;;;;;;;11.07;8.55;;;;;;;;;;5094396;28;20030;-64
2021/04/18 01:15:02;;;;;;;15.60;10.00;;;;;;;;;;5102894;28;20019;-65
2021/04/18 01:17:28;;;;;;;11.68;8.77;;;;;;;;;;5097900;28;20020;-65
2021/04/18 01:19:55;;;;;;;12.13;8.23;;;;;;;;;;5083903;28;20031;-65
2021/04/18 01:22:21;;;;;;;9.32;8.40;;;;;;;;;;5103814;28;20099;-66
2021/04/18 01:24:47;;;;;;;15.65;9.20;;;;;;;;;;5101950;28;20363;-64
2021/04/18 01:27:16;;;;;;;12.45;8.52;;;;;;;;;;5104675;28;20036;-63
2021/04/18 01:29:42;;;;;;;14.02;8.55;;;;;;;;;;5111160;28;20030;-65
2021/04/18 01:32:08;;;;;;;13.90;8.15;;;;;;;;;;5108325;28;20500;-65
2021/04/18 01:34:39;;;;;;;12.25;8.18;;;;;;;;;;5096901;28;20031;-65
2021/04/18 01:37:05;;;;;;;12.60;8.00;;;;;;;;;;5107691;28;20090;-64
2021/04/18 01:39:31;;;;;;;11.40;8.20;;;;;;;;;;5100157;28;20020;-72
2021/04/18 01:41:57;;;;;;;36.35;9.35;;;;;;;;;;5102889;28;20028;-65
2021/04/18 01:44:23;;;;;;;14.82;8.77;;;;;;;;;;5100446;28;20031;-65
2021/04/18 01:46:50;;;;;;;19.10;9.85;;;;;;;;;;5114089;28;20027;-67
2021/04/18 01:49:16;;;;;;;11.70;8.18;;;;;;;;;;5109159;28;20027;-65
2021/04/18 01:51:42;;;;;;;11.57;9.13;;;;;;;;;;5113607;28;20030;-64
2021/04/18 01:54:08;;;;;;;10.82;8.63;;;;;;;;;;5102871;28;20555;-64
2021/04/18 01:56:34;;;;;;;12.25;9.55;;;;;;;;;;5098396;28;20054;-65
2021/04/18 01:59:00;;;;;;;11.55;9.10;;;;;;;;;;5100161;28;20024;-64
2021/04/18 02:01:26;;;;;;;12.57;9.18;;;;;;;;;;5093386;28;20028;-66
2021/04/18 02:03:52;;;;;;;15.45;9.38;;;;;;;;;;5109431;28;20047;-64
2021/04/18 02:06:19;;;;;;;16.15;10.18;;;;;;;;;;5100388;28;20372;-64
2021/04/18 02:08:45;;;;;;;13.07;8.70;;;;;;;;;;5103022;28;20382;-64
2021/04/18 02:11:11;;;;;;;13.00;9.65;;;;;;;;;;5101592;28;20103;-65
2021/04/18 02:13:37;;;;;;;19.67;9.68;;;;;;;;;;5094203;28;20028;-63
2021/04/18 02:16:03;;;;;;;15.15;9.27;;;;;;;;;;5104190;28;20028;-65
2021/04/18 02:18:29;;;;;;;15.32;9.05;;;;;;;;;;5099771;28;20094;-65
2021/04/18 02:20:56;;;;;;;15.70;9.70;;;;;;;;;;5105129;28;20028;-65
2021/04/18 02:23:22;;;;;;;15.38;9.25;;;;;;;;;;5095995;28;20028;-65
2021/04/18 02:25:48;;;;;;;13.80;8.90;;;;;;;;;;5095460;28;20020;-64
2021/04/18 02:28:14;;;;;;;13.40;8.57;;;;;;;;;;5110798;28;20069;-64
2021/04/18 02:30:40;;;;;;;14.10;9.48;;;;;;;;;;5111770;28;20030;-64
2021/04/18 02:33:06;;;;;;;13.93;9.40;;;;;;;;;;5094428;28;20093;-67
2021/04/18 02:35:32;;;;;;;14.38;8.45;;;;;;;;;;5109888;28;20446;-65
2021/04/18 02:37:58;;;;;;;15.60;9.07;;;;;;;;;;5096212;28;20026;-64
2021/04/18 02:40:25;;;;;;;13.73;10.60;;;;;;;;;;5101635;28;20051;-65
2021/04/18 02:42:51;;;;;;;12.90;8.57;;;;;;;;;;5112165;28;20605;-65
2021/04/18 02:45:17;;;;;;;12.73;9.02;;;;;;;;;;5100837;28;20035;-64
2021/04/18 02:47:43;;;;;;;12.57;8.90;;;;;;;;;;5092563;28;20016;-65
2021/04/18 02:50:09;;;;;;;13.25;8.82;;;;;;;;;;5105498;28;20016;-62
2021/04/18 02:52:36;;;;;;;16.92;10.48;;;;;;;;;;5093559;28;20062;-64
2021/04/18 02:55:02;;;;;;;15.50;9.18;;;;;;;;;;5097900;28;20042;-65
2021/04/18 02:57:28;;;;;;;15.45;8.18;;;;;;;;;;5112833;28;20027;-65
2021/04/18 02:59:54;;;;;;;15.40;9.18;;;;;;;;;;5093618;28;20085;-65
2021/04/18 03:02:20;;;;;;;13.52;8.88;;;;;;;;;;5092532;28;20023;-65
2021/04/18 03:04:47;;;;;;;13.88;8.85;;;;;;;;;;5107400;28;20063;-65
2021/04/18 03:07:14;;;;;;;14.32;9.75;;;;;;;;;;5092232;28;20111;-64
2021/04/18 03:09:40;;;;;;;16.38;9.50;;;;;;;;;;5101547;28;20028;-65
2021/04/18 03:12:06;;;;;;;14.90;8.48;;;;;;;;;;5107154;28;20028;-66
2021/04/18 03:14:32;;;;;;;13.57;8.90;;;;;;;;;;5096507;28;20027;-63
2021/04/18 03:16:58;;;;;;;13.95;8.80;;;;;;;;;;5111165;28;20084;-63
2021/04/18 03:19:24;;;;;;;15.63;8.75;;;;;;;;;;5104707;28;20546;-63
2021/04/18 03:21:50;;;;;;;21.52;9.35;;;;;;;;;;5094540;28;20099;-64
2021/04/18 03:24:16;;;;;;;12.02;8.75;;;;;;;;;;5103145;28;20058;-62
2021/04/18 03:26:42;;;;;;;16.98;10.57;;;;;;;;;;5109253;28;20389;-62
2021/04/18 03:29:08;;;;;;;19.15;10.90;;;;;;;;;;5110683;28;20081;-64
2021/04/18 03:31:35;;;;;;;16.33;9.50;;;;;;;;;;5110576;28;20019;-65
2021/04/18 03:34:01;;;;;;;14.98;8.65;;;;;;;;;;5109956;28;20058;-63
2021/04/18 03:36:27;;;;;;;17.33;10.65;;;;;;;;;;5110432;28;20077;-64
2021/04/18 03:38:53;;;;;;;13.45;9.05;;;;;;;;;;5107840;28;20051;-65
2021/04/18 03:41:19;;;;;;;16.35;11.00;;;;;;;;;;5095031;28;20036;-63
2021/04/18 03:43:45;;;;;;;19.95;10.88;;;;;;;;;;5094671;28;20047;-63
2021/04/18 03:46:11;;;;;;;15.43;10.25;;;;;;;;;;5105532;28;20107;-63
2021/04/18 03:48:37;;;;;;;14.35;9.48;;;;;;;;;;5099479;28;20062;-62
2021/04/18 03:51:03;;;;;;;16.33;10.25;;;;;;;;;;5107096;28;20488;-62
2021/04/18 03:53:29;;;;;;;15.00;9.10;;;;;;;;;;5109023;28;20031;-63
2021/04/18 03:55:56;;;;;;;15.93;9.70;;;;;;;;;;5105346;28;20055;-62
2021/04/18 03:58:22;;;;;;;14.18;8.90;;;;;;;;;;5106458;28;20363;-63
2021/04/18 04:00:48;;;;;;;17.15;9.80;;;;;;;;;;5105040;28;20030;-62
2021/04/18 04:03:14;;;;;;;15.82;9.85;;;;;;;;;;5112048;28;20030;-63
2021/04/18 04:05:40;;;;;;;15.25;9.60;;;;;;;;;;5106163;28;20111;-62
2021/04/18 04:08:06;;;;;;;15.15;9.70;;;;;;;;;;5095691;28;20039;-62
2021/04/18 04:10:33;;;;;;;14.85;9.32;;;;;;;;;;5082900;28;20371;-63
2021/04/18 04:12:59;;;;;;;15.60;9.93;;;;;;;;;;5096729;28;20024;-64
2021/04/18 04:15:25;;;;;;;14.85;8.60;;;;;;;;;;5104625;28;20114;-62
2021/04/18 04:17:51;;;;;;;13.45;9.40;;;;;;;;;;5106788;28;20399;-63
2021/04/18 04:20:17;;;;;;;18.58;9.20;;;;;;;;;;5097661;28;20074;-64
2021/04/18 04:22:43;;;;;;;13.93;8.80;;;;;;;;;;5095251;28;20049;-63
2021/04/18 04:25:10;;;;;;;13.70;8.95;;;;;;;;;;5100434;28;20034;-63
2021/04/18 04:27:36;;;;;;;12.48;8.93;;;;;;;;;;5105694;28;20036;-62
2021/04/18 04:30:02;;;;;;;16.60;9.60;;;;;;;;;;5107217;28;20046;-64
2021/04/18 04:32:30;;;;;;;13.50;8.50;;;;;;;;;;5112218;28;20015;-63
2021/04/18 04:34:56;;;;;;;11.77;8.98;;;;;;;;;;5096702;28;20028;-64
2021/04/18 04:37:22;;;;;;;13.02;8.73;;;;;;;;;;5112677;28;20036;-64
2021/04/18 04:39:48;;;;;;;13.50;9.57;;;;;;;;;;5100332;28;20016;-63
2021/04/18 04:42:14;;;;;;;11.60;9.07;;;;;;;;;;5111782;28;20035;-63
2021/04/18 04:44:40;;;;;;;16.58;8.35;;;;;;;;;;5110713;28;20028;-64
2021/04/18 04:47:07;;;;;;;12.27;8.00;;;;;;;;;;5097299;28;20028;-64
2021/04/18 04:49:33;;;;;;;13.60;8.55;;;;;;;;;;5105961;28;20072;-63
2021/04/18 04:51:59;;;;;;;11.55;8.75;;;;;;;;;;5095689;28;20581;-62
2021/04/18 04:54:25;;;;;;;12.68;8.75;;;;;;;;;;5095915;28;20050;-63
2021/04/18 04:56:52;;;;;;;13.55;9.07;;;;;;;;;;5097757;28;20509;-62
2021/04/18 04:59:18;;;;;;;15.63;9.05;;;;;;;;;;5109819;28;20509;-63
2021/04/18 05:01:44;;;;;;;12.23;8.32;;;;;;;;;;5105199;28;20066;-64
2021/04/18 05:04:10;;;;;;;13.00;9.18;;;;;;;;;;5100236;28;20040;-64
2021/04/18 05:06:36;;;;;;;13.90;8.70;;;;;;;;;;5102616;28;20359;-63
2021/04/18 05:09:04;;;;;;;11.82;8.35;;;;;;;;;;5099042;28;20023;-63
2021/04/18 05:11:30;;;;;;;14.55;8.75;;;;;;;;;;5097071;28;20081;-63
2021/04/18 05:13:56;;;;;;;13.70;8.55;;;;;;;;;;5095341;28;20108;-67
2021/04/18 05:16:22;;;;;;;16.40;8.27;;;;;;;;;;5099668;28;20030;-63
2021/04/18 05:18:48;;;;;;;13.98;8.07;;;;;;;;;;5113075;28;20481;-63
2021/04/18 05:21:14;;;;;;;11.48;7.40;;;;;;;;;;5084116;28;20394;-64
2021/04/18 05:23:40;;;;;;;11.02;8.20;;;;;;;;;;5095985;28;20462;-64
2021/04/18 05:26:06;;;;;;;13.25;8.70;;;;;;;;;;5107584;28;20032;-64
2021/04/18 05:28:33;;;;;;;11.77;8.27;;;;;;;;;;5095533;28;20027;-63
2021/04/18 05:30:59;;;;;;;12.10;7.88;;;;;;;;;;5098880;28;20051;-62
2021/04/18 05:33:25;;;;;;;8.55;7.30;;;;;;;;;;5112227;28;20028;-64
2021/04/18 05:35:51;;;;;;;11.88;7.65;;;;;;;;;;5105770;28;20059;-63
2021/04/18 05:38:18;;;;;;;10.63;7.70;;;;;;;;;;5094595;28;20025;-63
2021/04/18 05:40:44;;;;;;;10.05;7.97;;;;;;;;;;5103165;28;20019;-64
2021/04/18 05:43:11;;;;;;;10.95;7.68;;;;;;;;;;5112201;28;20028;-63
2021/04/18 05:45:37;;;;;;;12.00;7.18;;;;;;;;;;5110501;28;20106;-62
2021/04/18 05:48:03;;;;;;;13.30;7.88;;;;;;;;;;5094000;28;20356;-63
2021/04/18 05:50:29;;;;;;;12.00;7.95;;;;;;;;;;5097590;28;20034;-63
2021/04/18 05:52:55;;;;;;;11.65;7.80;;;;;;;;;;5093594;28;20035;-63
2021/04/18 05:55:22;;;;;;;10.65;7.70;;;;;;;;;;5100338;28;20051;-62
2021/04/18 05:57:48;;;;;;;10.63;7.65;;;;;;;;;;5105770;28;20068;-63
2021/04/18 06:00:14;;;;;;;13.82;6.95;;;;;;;;;;5093356;28;20027;-63
2021/04/18 06:02:40;;;;;;;11.60;7.57;;;;;;;;;;5094604;28;20032;-64
2021/04/18 06:05:06;;;;;;;11.88;7.78;;;;;;;;;;5096381;28;20402;-63
2021/04/18 06:07:32;;;;;;;13.27;7.07;;;;;;;;;;5102877;28;20028;-62
2021/04/18 06:09:58;;;;;;;12.80;7.85;;;;;;;;;;5104836;28;20048;-64
2021/04/18 06:12:25;;;;;;;8.70;7.22;;;;;;;;;;5101896;28;20466;-64
2021/04/18 06:14:52;;;;;;;11.55;7.72;;;;;;;;;;5113461;28;20019;-64
2021/04/18 06:17:18;;;;;;;10.38;7.07;;;;;;;;;;5106681;28;20107;-65
2021/04/18 06:19:44;;;;;;;13.00;7.65;;;;;;;;;;5095798;28;20509;-64
2021/04/18 06:22:10;;;;;;;9.50;7.20;;;;;;;;;;5101010;28;20032;-64
2021/04/18 06:24:37;;;;;;;8.68;6.90;;;;;;;;;;5112606;28;20042;-64
2021/04/18 06:27:03;;;;;;;9.75;7.00;;;;;;;;;;5100486;28;20024;-64
2021/04/18 06:29:29;;;;;;;10.93;6.75;;;;;;;;;;5104437;28;20028;-64
2021/04/18 06:31:55;;;;;;;9.43;7.20;;;;;;;;;;5093570;28;20037;-63
2021/04/18 06:34:23;;;;;;;11.65;7.40;;;;;;;;;;5111467;28;20027;-64
2021/04/18 06:36:50;;;;;;;14.68;7.57;;;;;;;;;;5108724;28;20015;-65
2021/04/18 06:39:16;;;;;;;12.13;6.65;;;;;;;;;;5110654;28;20484;-65
2021/04/18 06:41:42;;;;;;;8.15;6.70;;;;;;;;;;5104635;28;20023;-63
2021/04/18 06:44:09;;;;;;;12.80;8.43;;;;;;;;;;5103079;28;20056;-64
2021/04/18 06:46:35;;;;;;;10.50;6.55;;;;;;;;;;5093419;28;20044;-63
2021/04/18 06:49:01;;;;;;;16.45;7.30;;;;;;;;;;5095006;28;20020;-63
2021/04/18 06:51:27;;;;;;;10.35;7.07;;;;;;;;;;5111248;28;20335;-63
2021/04/18 06:53:53;;;;;;;9.48;6.72;;;;;;;;;;5107377;28;20024;-63
2021/04/18 06:56:19;;;;;;;12.55;7.32;;;;;;;;;;5101291;28;20023;-63
2021/04/18 06:58:46;;;;;;;8.73;6.93;;;;;;;;;;5108209;28;20028;-63
2021/04/18 07:01:12;;;;;;;12.13;7.38;;;;;;;;;;5108334;28;20508;-63
2021/04/18 07:03:38;;;;;;;14.07;7.13;;;;;;;;;;5093383;28;20028;-64
2021/04/18 07:06:07;;;;;;;9.00;7.30;;;;;;;;;;5107253;28;20035;-63
2021/04/18 07:08:34;;;;;;;9.20;6.78;;;;;;;;;;5109628;28;20035;-62
2021/04/18 07:11:16;;;;;;;12.07;7.85;;;;;;;;;;5095199;28;20027;-63
2021/04/18 07:13:43;;;;;;;10.35;7.40;;;;;;;;;;5106328;28;20030;-64
2021/04/18 07:16:41;;;;;;;12.13;7.35;;;;;;;;;;5108600;28;20020;-63
2021/04/18 07:19:17;;;;;;;13.00;7.10;;;;;;;;;;5035670;28;20111;-64
2021/04/18 07:21:45;;;;;;;15.00;7.95;;;;;;;;;;5098520;28;20389;-63
2021/04/18 07:24:11;;;;;;;9.80;7.30;;;;;;;;;;5094180;28;20089;-63
2021/04/18 07:26:37;;;;;;;11.98;7.65;;;;;;;;;;5108609;28;20489;-63
2021/04/18 07:29:16;;;;;;;9.82;7.05;;;;;;;;;;5109724;28;20028;-62
2021/04/18 07:31:43;;;;;;;10.65;7.20;;;;;;;;;;5092929;28;20111;-64
2021/04/18 07:34:10;;;;;;;11.05;7.63;;;;;;;;;;5108367;28;20399;-64
2021/04/18 07:36:37;;;;;;;9.80;6.97;;;;;;;;;;5107117;28;20027;-65
2021/04/18 07:39:07;;;;;;;10.43;7.03;;;;;;;;;;5103203;28;20026;-63
2021/04/18 07:41:37;;;;;;;10.82;7.47;;;;;;;;;;5107883;28;20023;-65
2021/04/18 07:44:03;;;;;;;12.60;8.27;;;;;;;;;;5102588;28;20406;-64
2021/04/18 07:46:29;;;;;;;10.48;7.85;;;;;;;;;;5097290;28;20039;-64
2021/04/18 07:48:56;;;;;;;10.73;7.70;;;;;;;;;;5096157;28;20024;-64
2021/04/18 07:51:23;;;;;;;9.30;6.97;;;;;;;;;;5112139;28;20050;-64
2021/04/18 07:53:49;;;;;;;11.23;7.25;;;;;;;;;;5109580;28;20028;-64
2021/04/18 07:56:16;;;;;;;11.43;7.38;;;;;;;;;;5111235;28;20028;-64
2021/04/18 07:58:44;;;;;;;11.43;7.13;;;;;;;;;;5089406;28;20081;-63
2021/04/18 08:01:10;;;;;;;10.07;7.32;;;;;;;;;;5114351;28;20023;-64
2021/04/18 08:03:37;;;;;;;12.30;7.35;;;;;;;;;;5103639;28;20081;-64
2021/04/18 08:06:06;;;;;;;12.18;7.93;;;;;;;;;;5096316;28;20167;-63
2021/04/18 08:08:46;;;;;;;8.88;6.40;;;;;;;;;;5100729;28;20423;-64
2021/04/18 08:11:13;;;;;;;14.32;7.18;;;;;;;;;;5107768;28;20378;-64
2021/04/18 08:13:41;;;;;;;12.05;7.05;;;;;;;;;;5099665;28;20474;-63
2021/04/18 08:16:08;;;;;;;11.75;7.03;;;;;;;;;;5097252;28;20039;-64
2021/04/18 08:18:42;;;;;;;11.18;7.63;;;;;;;;;;5098455;28;20095;-64
2021/04/18 08:21:30;;;;;;;10.95;7.85;;;;;;;;;;5112089;28;20046;-64
2021/04/18 08:23:56;;;;;;;11.65;8.20;;;;;;;;;;5112334;28;20028;-63
2021/04/18 08:26:23;;;;;;;11.30;7.57;;;;;;;;;;5078097;28;20503;-64
2021/04/18 08:28:55;;;;;;;15.27;8.50;;;;;;;;;;5097377;28;20062;-63
2021/04/18 08:31:21;;;;;;;14.15;8.63;;;;;;;;;;5100987;28;20484;-64
2021/04/18 08:33:49;;;;;;;10.18;6.85;;;;;;;;;;5103309;28;20598;-64
2021/04/18 08:36:19;;;;;;;13.43;7.78;;;;;;;;;;5106522;28;20040;-63
2021/04/18 08:38:49;;;;;;;11.30;7.40;;;;;;;;;;5103575;28;20020;-64
2021/04/18 08:41:16;;;;;;;14.60;8.23;;;;;;;;;;5111177;28;20028;-65
2021/04/18 08:43:46;;;;;;;11.55;8.02;;;;;;;;;;5114034;28;20172;-66
2021/04/18 08:46:13;;;;;;;11.95;7.00;;;;;;;;;;5099919;28;20395;-64
2021/04/18 08:48:39;;;;;;;10.85;7.07;;;;;;;;;;5097093;28;20031;-65
2021/04/18 08:51:06;;;;;;;10.00;7.60;;;;;;;;;;5106053;28;20096;-65
2021/04/18 08:53:51;;;;;;;16.83;6.38;;;;;;;;;;5097828;28;20024;-65
2021/04/18 08:56:17;;;;;;;9.98;7.05;;;;;;;;;;5099952;28;20387;-64
2021/04/18 08:58:43;;;;;;;11.10;6.72;;;;;;;;;;5107312;28;20035;-65
2021/04/18 09:01:11;;;;;;;9.82;6.20;;;;;;;;;;5094665;28;20020;-65
2021/04/18 09:03:38;;;;;;;10.20;7.13;;;;;;;;;;5102650;28;20073;-63
2021/04/18 09:06:04;;;;;;;11.05;6.88;;;;;;;;;;5114197;28;20490;-64
2021/04/18 09:08:32;;;;;;;15.55;7.10;;;;;;;;;;5112337;28;20509;-66
2021/04/18 09:11:06;;;;;;;12.65;7.28;;;;;;;;;;5107576;28;20053;-65
2021/04/18 09:13:32;;;;;;;11.48;7.13;;;;;;;;;;5102464;28;20360;-65
2021/04/18 09:15:58;;;;;;;10.88;6.63;;;;;;;;;;5094211;28;20020;-65
2021/04/18 09:18:25;;;;;;;12.40;8.25;;;;;;;;;;5104522;28;20151;-66
2021/04/18 09:21:09;;;;;;;9.40;6.35;;;;;;;;;;5101832;28;20023;-66
2021/04/18 09:23:54;;;;;;;9.98;6.55;;;;;;;;;;5106904;28;20027;-65
2021/04/18 09:26:20;;;;;;;9.85;5.32;;;;;;;;;;5100513;28;20039;-65
2021/04/18 09:29:06;;;;;;;9.23;6.50;;;;;;;;;;5110443;28;20073;-65
2021/04/18 09:31:32;;;;;;;6.22;5.10;;;;;;;;;;5075814;28;20028;-66
2021/04/18 09:34:05;;;;;;;8.82;6.50;;;;;;;;;;5100472;28;20466;-65
2021/04/18 09:36:32;;;;;;;9.48;5.45;;;;;;;;;;5109440;28;20486;-65
2021/04/18 09:39:00;;;;;;;8.32;5.05;;;;;;;;;;5111029;28;20015;-65
2021/04/18 09:41:26;;;;;;;8.80;5.97;;;;;;;;;;5100228;28;20043;-65
2021/04/18 09:43:59;;;;;;;8.75;6.07;;;;;;;;;;5110400;28;20112;-66
2021/04/18 09:46:25;;;;;;;8.90;5.95;;;;;;;;;;5095755;28;20032;-64
2021/04/18 09:49:01;;;;;;;9.32;5.03;;;;;;;;;;5098476;28;20019;-64
2021/04/18 09:51:27;;;;;;;;;;;;;;;;;;5109002;28;20046;-65
2021/04/18 09:53:53;;;;;;;;;;;;;;;;;;5098452;28;19980;-64
2021/04/18 09:56:18;;;;;;;;;;;;;;;;;;5097402;28;19908;-65
2021/04/18 09:58:45;;;;;;;;;;;;;;;;;;5112168;28;19903;-64
2021/04/18 10:01:25;;;;;;;7.65;5.50;;;;;;;;;;5093989;28;19908;-65
2021/04/18 10:03:51;;;;;;;9.90;5.57;;;;;;;;;;5105995;28;20107;-65
2021/04/18 10:06:17;;;;;;;6.28;4.97;;;;;;;;;;5093020;28;20472;-64
2021/04/18 10:08:52;;;;;;;10.35;6.03;;;;;;;;;;5105323;28;20128;-64
2021/04/18 10:11:19;;;;;;;8.73;5.03;;;;;;;;;;5098618;28;20470;-65
2021/04/18 10:13:49;;;;;;;7.88;5.30;;;;;;;;;;5103200;28;20522;-65
2021/04/18 10:16:16;;;;;;;7.05;5.28;;;;;;;;;;5102234;28;20028;-66
2021/04/18 10:18:43;;;;;;;5.45;4.65;;;;;;;;;;5099358;28;20149;-65
2021/04/18 10:21:15;;;;;;;10.90;5.40;;;;;;;;;;5101228;28;20035;-66
2021/04/18 10:23:42;;;;;;;6.93;5.50;;;;;;;;;;5108629;28;20019;-65
2021/04/18 10:26:08;;;;;;;10.80;5.72;;;;;;;;;;5093761;28;20031;-65
2021/04/18 10:28:34;;;;;;;8.93;5.20;;;;;;;;;;5093122;28;20028;-65
2021/04/18 10:31:00;;;;;;;9.95;5.53;;;;;;;;;;5103850;28;20028;-66
2021/04/18 10:33:26;;;;;;;7.07;5.22;;;;;;;;;;5111241;28;20023;-64
2021/04/18 10:36:00;;;;;;;6.93;4.88;;;;;;;;;;5096884;28;20106;-65
2021/04/18 10:38:26;;;;;;;6.63;5.18;;;;;;;;;;5113456;28;20054;-65
2021/04/18 10:40:52;;;;;;;7.38;5.35;;;;;;;;;;5102610;28;20023;-65
2021/04/18 10:43:18;;;;;;;7.75;5.68;;;;;;;;;;5100702;28;20498;-66
2021/04/18 10:45:44;;;;;;;6.57;5.05;;;;;;;;;;5107720;28;20119;-65
2021/04/18 10:48:10;;;;;;;6.57;5.43;;;;;;;;;;5082641;28;20072;-65
2021/04/18 10:50:37;;;;;;;9.55;6.22;;;;;;;;;;5092646;28;20482;-65
2021/04/18 10:53:03;;;;;;;8.18;5.28;;;;;;;;;;5103722;28;20114;-65
2021/04/18 10:55:29;;;;;;;8.25;5.25;;;;;;;;;;5108475;28;20023;-66
2021/04/18 10:57:55;;;;;;;7.80;6.13;;;;;;;;;;5099990;28;20510;-65
2021/04/18 11:00:22;;;;;;;7.55;5.18;;;;;;;;;;5109718;28;20024;-66
2021/04/18 11:02:48;;;;;;;9.13;6.55;;;;;;;;;;5092529;28;20364;-65
2021/04/18 11:05:14;;;;;;;9.90;5.25;;;;;;;;;;5111365;28;20040;-65
2021/04/18 11:07:40;;;;;;;9.25;4.82;;;;;;;;;;5112685;28;20051;-66
2021/04/18 11:10:08;;;;;;;5.88;4.97;;;;;;;;;;5107536;28;20027;-65
2021/04/18 11:12:34;;;;;;;7.00;6.10;;;;;;;;;;5109452;28;20103;-65
2021/04/18 11:15:00;;;;;;;6.90;5.32;;;;;;;;;;5104279;28;20031;-66
2021/04/18 11:17:26;;;;;;;7.22;5.22;;;;;;;;;;5110658;28;20035;-66
2021/04/18 11:19:53;;;;;;;10.00;6.10;;;;;;;;;;5104963;28;20382;-66
2021/04/18 11:22:20;;;;;;;11.70;7.20;;;;;;;;;;5113978;28;20032;-66
2021/04/18 11:24:46;;;;;;;6.93;5.07;;;;;;;;;;5108424;28;20056;-66
2021/04/18 11:27:12;;;;;;;12.45;6.10;;;;;;;;;;5113406;28;20084;-65
2021/04/18 11:29:42;;;;;;;8.48;4.88;;;;;;;;;;5111249;28;20027;-67
2021/04/18 11:32:09;;;;;;;7.88;6.03;;;;;;;;;;5112063;28;20030;-66
2021/04/18 11:34:35;;;;;;;11.27;6.22;;;;;;;;;;5101539;28;20020;-65
2021/04/18 11:37:02;;;;;;;9.30;6.03;;;;;;;;;;5115455;28;20050;-65
2021/04/18 11:39:28;;;;;;;11.48;5.88;;;;;;;;;;5114688;28;20031;-66
2021/04/18 11:41:55;;;;;;;10.68;5.53;;;;;;;;;;5111014;28;20027;-67
2021/04/18 11:44:21;;;;;;;9.25;5.75;;;;;;;;;;5114000;28;20055;-65
2021/04/18 11:46:47;;;;;;;9.10;5.80;;;;;;;;;;5104796;28;20027;-67
2021/04/18 11:49:14;;;;;;;11.65;6.75;;;;;;;;;;5114582;28;20035;-66
2021/04/18 11:51:41;;;;;;;10.50;6.43;;;;;;;;;;5113694;28;20023;-65
2021/04/18 11:54:08;;;;;;;7.88;5.15;;;;;;;;;;5109288;28;20027;-66
2021/04/18 11:56:34;;;;;;;10.57;6.82;;;;;;;;;;5100141;28;20490;-66
2021/04/18 11:59:01;;;;;;;10.38;6.57;;;;;;;;;;5107244;28;20030;-66
2021/04/18 12:01:27;;;;;;;13.27;8.45;;;;;;;;;;5098250;28;20035;-66
2021/04/18 12:03:53;;;;;;;17.13;8.75;;;;;;;;;;5107431;28;20514;-65
2021/04/18 12:06:19;;;;;;;13.65;6.55;;;;;;;;;;5116186;28;20043;-65
2021/04/18 12:08:45;;;;;;;13.85;7.03;;;;;;;;;;5109173;28;20460;-65
2021/04/18 12:11:11;;;;;;;14.30;7.28;;;;;;;;;;5103176;28;20024;-66
2021/04/18 12:13:38;;;;;;;6.72;5.30;;;;;;;;;;5104687;28;20063;-66
2021/04/18 12:16:04;;;;;;;7.40;5.40;;;;;;;;;;5116116;28;20019;-66
2021/04/18 12:18:30;;;;;;;10.35;7.40;;;;;;;;;;5112657;28;20537;-66
2021/04/18 12:20:56;;;;;;;9.85;6.82;;;;;;;;;;5112180;28;20032;-65
2021/04/18 12:23:22;;;;;;;9.57;5.60;;;;;;;;;;5107681;28;20386;-66
2021/04/18 12:25:48;;;;;;;7.43;6.30;;;;;;;;;;5103586;28;20039;-66
2021/04/18 12:28:14;;;;;;;6.72;5.45;;;;;;;;;;5104919;28;20087;-65
2021/04/18 12:30:40;;;;;;;9.10;5.90;;;;;;;;;;5114433;28;20016;-65
2021/04/18 12:33:07;;;;;;;6.60;5.38;;;;;;;;;;5101810;28;20063;-65
2021/04/18 12:35:33;;;;;;;9.23;6.32;;;;;;;;;;5104036;28;20081;-66
2021/04/18 12:37:59;;;;;;;7.03;5.68;;;;;;;;;;5097556;28;20028;-65
2021/04/18 12:40:26;;;;;;;7.93;5.45;;;;;;;;;;5101720;28;20027;-65
2021/04/18 12:42:52;;;;;;;8.77;5.75;;;;;;;;;;5105086;28;20027;-65
2021/04/18 12:45:18;;;;;;;9.27;5.90;;;;;;;;;;5103942;28;20059;-66
2021/04/18 12:47:45;;;;;;;9.32;7.35;;;;;;;;;;5106398;28;20024;-64
2021/04/18 12:50:11;;;;;;;14.15;7.47;;;;;;;;;;5111027;28;20023;-65
2021/04/18 12:52:38;;;;;;;7.68;5.93;;;;;;;;;;5102755;28;20050;-64
2021/04/18 12:55:04;;;;;;;7.63;4.88;;;;;;;;;;5103196;28;20378;-65
2021/04/18 12:57:31;;;;;;;9.75;5.70;;;;;;;;;;5099782;28;20028;-65
2021/04/18 12:59:57;;;;;;;10.32;6.15;;;;;;;;;;5104433;28;20039;-65
2021/04/18 13:02:23;;;;;;;9.20;6.15;;;;;;;;;;5110244;28;20039;-65
2021/04/18 13:04:53;;;;;;;8.50;5.47;;;;;;;;;;5105509;28;20043;-64
2021/04/18 13:07:19;;;;;;;10.18;6.93;;;;;;;;;;5095295;28;20390;-64
2021/04/18 13:09:45;;;;;;;8.63;5.15;;;;;;;;;;5095339;28;20043;-64
2021/04/18 13:12:11;;;;;;;8.48;6.75;;;;;;;;;;5094220;28;20016;-64
2021/04/18 13:14:37;;;;;;;8.27;5.72;;;;;;;;;;5108253;28;20489;-64
2021/04/18 13:17:03;;;;;;;10.23;5.72;;;;;;;;;;5110954;28;20032;-65
2021/04/18 13:19:30;;;;;;;9.90;6.60;;;;;;;;;;5113149;28;20031;-65
2021/04/18 13:21:56;;;;;;;9.93;7.25;;;;;;;;;;5106764;28;20020;-65
2021/04/18 13:24:22;;;;;;;11.15;6.47;;;;;;;;;;5107208;28;20032;-64
2021/04/18 13:26:48;;;;;;;10.00;5.70;;;;;;;;;;5105256;28;20031;-65
2021/04/18 13:29:14;;;;;;;11.02;7.97;;;;;;;;;;5113224;28;20098;-65
2021/04/18 13:31:40;;;;;;;11.68;7.20;;;;;;;;;;5093926;28;20555;-65
2021/04/18 13:34:06;;;;;;;8.93;5.75;;;;;;;;;;5098730;28;20019;-66
2021/04/18 13:36:32;;;;;;;7.93;6.03;;;;;;;;;;5099086;28;20052;-64
2021/04/18 13:38:58;;;;;;;11.57;7.32;;;;;;;;;;5098212;28;20055;-65
2021/04/18 13:41:24;;;;;;;7.47;6.25;;;;;;;;;;5102446;28;20059;-64
2021/04/18 13:43:50;;;;;;;7.82;5.90;;;;;;;;;;5101208;28;20027;-65
2021/04/18 13:46:16;;;;;;;7.10;5.65;;;;;;;;;;5103282;28;20057;-65
2021/04/18 13:48:43;;;;;;;9.40;6.50;;;;;;;;;;5101379;28;20479;-64
2021/04/18 13:51:09;;;;;;;10.00;6.35;;;;;;;;;;5109542;28;20485;-65
2021/04/18 13:53:35;;;;;;;8.32;6.32;;;;;;;;;;5099819;28;20032;-66
2021/04/18 13:56:01;;;;;;;7.55;6.07;;;;;;;;;;5093577;28;20020;-64
2021/04/18 13:58:27;;;;;;;9.50;5.97;;;;;;;;;;5080989;28;20123;-65
2021/04/18 14:00:53;;;;;;;5.90;5.30;;;;;;;;;;5093435;28;20027;-65
2021/04/18 14:03:19;;;;;;;7.10;5.22;;;;;;;;;;5103762;28;20028;-65
2021/04/18 14:05:45;;;;;;;8.07;5.25;;;;;;;;;;5106392;28;20391;-65
2021/04/18 14:08:11;;;;;;;6.55;5.88;;;;;;;;;;5109218;28;20049;-65
2021/04/18 14:10:37;;;;;;;9.05;6.72;;;;;;;;;;5095455;28;20028;-64
2021/04/18 14:13:03;;;;;;;8.07;7.03;;;;;;;;;;5105580;28;20054;-65
2021/04/18 14:15:30;;;;;;;13.90;7.55;;;;;;;;;;5102450;28;20031;-64
2021/04/18 14:17:56;;;;;;;8.63;6.68;;;;;;;;;;5110172;28;20028;-64
2021/04/18 14:20:22;;;;;;;10.02;6.18;;;;;;;;;;5101884;28;20449;-64
2021/04/18 14:22:48;;;;;;;7.13;6.35;;;;;;;;;;5098412;28;20028;-63
2021/04/18 14:25:15;;;;;;;7.85;6.15;;;;;;;;;;5094536;28;20030;-66
2021/04/18 14:27:42;;;;;;;9.57;6.80;;;;;;;;;;5093901;28;20154;-65
2021/04/18 14:30:08;;;;;;;10.70;6.72;;;;;;;;;;5105921;28;20023;-64
2021/04/18 14:32:35;;;;;;;10.20;7.88;;;;;;;;;;5105553;28;20024;-66
2021/04/18 14:35:01;;;;;;;11.93;10.18;;;;;;;;;;5102816;28;20032;-66